San Borja, Bolivia
Current Conditions -  °F | °C
As of 6:00 PM on Saturday 25 Oct 2014 (Local Time) from SLTR Reporting Station
Few Clouds Few Clouds  
Wind Chill: 91°   Ceiling: Unl
Heat Index: 97°   Visibility: 6mi
Dew Point: 70°   Wind: 3mph
Humidity: 49%   Direction: 220°SW
Pressure: 29.71"   Gusts: NA
Location:  14.82°S, 66.85°W
Report Text: SLTR 252200Z 22003KT 9999 FEW020 FEW023CB 33/21 Q1006
Loading
Personal Weather Stations






























Interactive Weather Map
Tropical Storm Tracking
New forecast layout! Learn more

10-Day Weather Forecast

Advertisements
Track Severe Weather on mobile